sensor_id;sensor_type;location;lat;lon;timestamp;pressure;altitude;pressure_sealevel;temperature;humidity
54144;BME280;40050;47.324;18.792;2023-05-11T00:00:47;1004.24;;;15.26;52.21
54144;BME280;40050;47.324;18.792;2023-05-11T00:02:48;1004.22;;;15.20;52.17
54144;BME280;40050;47.324;18.792;2023-05-11T00:04:49;1004.25;;;15.17;52.35
54144;BME280;40050;47.324;18.792;2023-05-11T00:06:50;1004.20;;;15.12;52.28
54144;BME280;40050;47.324;18.792;2023-05-11T00:08:51;1004.19;;;15.08;52.37
54144;BME280;40050;47.324;18.792;2023-05-11T00:10:52;1004.22;;;15.08;52.52
54144;BME280;40050;47.324;18.792;2023-05-11T00:12:52;1004.20;;;15.06;52.62
54144;BME280;40050;47.324;18.792;2023-05-11T00:14:53;1004.18;;;15.05;52.74
54144;BME280;40050;47.324;18.792;2023-05-11T00:16:54;1004.18;;;15.02;52.78
54144;BME280;40050;47.324;18.792;2023-05-11T00:18:55;1004.24;;;15.03;52.77
54144;BME280;40050;47.324;18.792;2023-05-11T00:20:56;1004.20;;;15.01;52.77
54144;BME280;40050;47.324;18.792;2023-05-11T00:22:57;1004.20;;;15.03;52.77
54144;BME280;40050;47.324;18.792;2023-05-11T00:24:58;1004.14;;;15.01;53.04
54144;BME280;40050;47.324;18.792;2023-05-11T00:26:59;1004.21;;;15.03;52.96
54144;BME280;40050;47.324;18.792;2023-05-11T00:29:00;1004.13;;;15.01;52.86
54144;BME280;40050;47.324;18.792;2023-05-11T00:31:01;1004.13;;;15.02;53.03
54144;BME280;40050;47.324;18.792;2023-05-11T00:33:02;1004.09;;;14.98;52.99
54144;BME280;40050;47.324;18.792;2023-05-11T00:35:03;1004.13;;;14.97;52.91
54144;BME280;40050;47.324;18.792;2023-05-11T00:37:04;1004.11;;;14.92;52.93
54144;BME280;40050;47.324;18.792;2023-05-11T00:39:05;1004.12;;;14.92;53.15
54144;BME280;40050;47.324;18.792;2023-05-11T00:41:06;1004.09;;;14.88;53.19
54144;BME280;40050;47.324;18.792;2023-05-11T00:43:07;1004.07;;;14.82;53.13
54144;BME280;40050;47.324;18.792;2023-05-11T00:45:08;1004.09;;;14.78;53.53
54144;BME280;40050;47.324;18.792;2023-05-11T00:47:09;1004.07;;;14.71;53.54
54144;BME280;40050;47.324;18.792;2023-05-11T00:49:10;1004.02;;;14.68;53.62
54144;BME280;40050;47.324;18.792;2023-05-11T00:51:11;1004.10;;;14.65;53.67
54144;BME280;40050;47.324;18.792;2023-05-11T00:53:12;1004.07;;;14.62;53.50
54144;BME280;40050;47.324;18.792;2023-05-11T00:55:13;1004.07;;;14.60;53.66
54144;BME280;40050;47.324;18.792;2023-05-11T00:57:15;1003.99;;;14.52;53.57
54144;BME280;40050;47.324;18.792;2023-05-11T00:59:16;1004.01;;;14.54;53.76
54144;BME280;40050;47.324;18.792;2023-05-11T01:01:17;1004.04;;;14.57;53.73
54144;BME280;40050;47.324;18.792;2023-05-11T01:03:18;1004.03;;;14.56;54.04
54144;BME280;40050;47.324;18.792;2023-05-11T01:05:19;1004.03;;;14.56;53.93
54144;BME280;40050;47.324;18.792;2023-05-11T01:09:43;1004.05;;;14.56;53.91
54144;BME280;40050;47.324;18.792;2023-05-11T01:11:48;1004.03;;;14.53;54.02
54144;BME280;40050;47.324;18.792;2023-05-11T01:13:54;1004.08;;;14.55;54.02
54144;BME280;40050;47.324;18.792;2023-05-11T01:15:59;1004.07;;;14.54;54.23
54144;BME280;40050;47.324;18.792;2023-05-11T01:18:10;1004.03;;;14.52;54.28
54144;BME280;40050;47.324;18.792;2023-05-11T01:20:16;1004.01;;;14.49;54.35
54144;BME280;40050;47.324;18.792;2023-05-11T01:22:28;1004.02;;;14.48;54.52
54144;BME280;40050;47.324;18.792;2023-05-11T01:24:44;1004.01;;;14.54;54.46
54144;BME280;40050;47.324;18.792;2023-05-11T01:27:02;1004.01;;;14.57;54.41
54144;BME280;40050;47.324;18.792;2023-05-11T01:29:09;1003.99;;;14.54;54.32
54144;BME280;40050;47.324;18.792;2023-05-11T01:31:14;1004.02;;;14.56;54.70
54144;BME280;40050;47.324;18.792;2023-05-11T01:33:15;1004.02;;;14.59;54.56
54144;BME280;40050;47.324;18.792;2023-05-11T01:35:22;1004.01;;;14.61;54.71
54144;BME280;40050;47.324;18.792;2023-05-11T01:37:24;1004.04;;;14.60;54.79
54144;BME280;40050;47.324;18.792;2023-05-11T01:39:29;1004.01;;;14.60;55.03
54144;BME280;40050;47.324;18.792;2023-05-11T01:41:32;1003.98;;;14.58;54.98
54144;BME280;40050;47.324;18.792;2023-05-11T01:43:34;1004.01;;;14.61;54.98
54144;BME280;40050;47.324;18.792;2023-05-11T01:45:37;1003.94;;;14.60;55.08
54144;BME280;40050;47.324;18.792;2023-05-11T01:47:40;1004.01;;;14.67;55.13
54144;BME280;40050;47.324;18.792;2023-05-11T01:49:41;1003.83;;;14.59;55.13
54144;BME280;40050;47.324;18.792;2023-05-11T01:51:43;1003.96;;;14.69;55.13
54144;BME280;40050;47.324;18.792;2023-05-11T01:53:46;1003.98;;;14.73;55.46
54144;BME280;40050;47.324;18.792;2023-05-11T01:55:47;1003.98;;;14.76;55.27
54144;BME280;40050;47.324;18.792;2023-05-11T01:57:50;1003.98;;;14.78;55.13
54144;BME280;40050;47.324;18.792;2023-05-11T01:59:52;1003.91;;;14.80;54.99
54144;BME280;40050;47.324;18.792;2023-05-11T02:01:53;1003.94;;;14.82;55.00
54144;BME280;40050;47.324;18.792;2023-05-11T02:03:54;1003.92;;;14.81;55.15
54144;BME280;40050;47.324;18.792;2023-05-11T02:05:55;1003.92;;;14.84;55.17
54144;BME280;40050;47.324;18.792;2023-05-11T02:07:57;1003.92;;;14.84;55.04
54144;BME280;40050;47.324;18.792;2023-05-11T02:10:00;1003.92;;;14.84;55.19
54144;BME280;40050;47.324;18.792;2023-05-11T02:12:02;1003.92;;;14.83;55.25
54144;BME280;40050;47.324;18.792;2023-05-11T02:14:04;1003.94;;;14.81;55.25
54144;BME280;40050;47.324;18.792;2023-05-11T02:16:06;1003.88;;;14.77;55.14
54144;BME280;40050;47.324;18.792;2023-05-11T02:18:09;1003.84;;;14.75;55.23
54144;BME280;40050;47.324;18.792;2023-05-11T02:20:11;1003.84;;;14.74;55.24
54144;BME280;40050;47.324;18.792;2023-05-11T02:22:13;1003.67;;;14.75;55.38
54144;BME280;40050;47.324;18.792;2023-05-11T02:24:14;1003.82;;;14.70;55.32
54144;BME280;40050;47.324;18.792;2023-05-11T02:26:15;1003.83;;;14.67;55.29
54144;BME280;40050;47.324;18.792;2023-05-11T02:28:17;1003.77;;;14.66;55.30
54144;BME280;40050;47.324;18.792;2023-05-11T02:30:18;1003.82;;;14.59;55.39
54144;BME280;40050;47.324;18.792;2023-05-11T02:32:19;1003.83;;;14.59;55.52
54144;BME280;40050;47.324;18.792;2023-05-11T02:34:25;1003.79;;;14.55;55.57
54144;BME280;40050;47.324;18.792;2023-05-11T02:36:27;1003.77;;;14.50;55.70
54144;BME280;40050;47.324;18.792;2023-05-11T02:38:29;1003.80;;;14.46;55.74
54144;BME280;40050;47.324;18.792;2023-05-11T02:40:33;1003.76;;;14.44;55.76
54144;BME280;40050;47.324;18.792;2023-05-11T02:42:37;1003.71;;;14.37;55.80
54144;BME280;40050;47.324;18.792;2023-05-11T02:44:38;1003.72;;;14.27;55.80
54144;BME280;40050;47.324;18.792;2023-05-11T02:46:40;1003.74;;;14.24;55.95
54144;BME280;40050;47.324;18.792;2023-05-11T02:48:42;1003.72;;;14.20;56.12
54144;BME280;40050;47.324;18.792;2023-05-11T02:50:44;1003.68;;;14.17;56.35
54144;BME280;40050;47.324;18.792;2023-05-11T02:52:46;1003.67;;;14.11;56.21
54144;BME280;40050;47.324;18.792;2023-05-11T02:54:48;1003.62;;;14.06;56.46
54144;BME280;40050;47.324;18.792;2023-05-11T02:56:50;1003.71;;;13.99;56.41
54144;BME280;40050;47.324;18.792;2023-05-11T02:58:52;1003.67;;;13.91;56.44
54144;BME280;40050;47.324;18.792;2023-05-11T03:00:53;1003.69;;;13.88;56.46
54144;BME280;40050;47.324;18.792;2023-05-11T03:02:54;1003.71;;;13.80;56.49
54144;BME280;40050;47.324;18.792;2023-05-11T03:04:55;1003.74;;;13.72;56.60
54144;BME280;40050;47.324;18.792;2023-05-11T03:06:56;1003.70;;;13.69;56.78
54144;BME280;40050;47.324;18.792;2023-05-11T03:08:57;1003.71;;;13.65;56.75
54144;BME280;40050;47.324;18.792;2023-05-11T03:10:57;1003.72;;;13.58;56.76
54144;BME280;40050;47.324;18.792;2023-05-11T03:12:58;1003.71;;;13.53;56.80
54144;BME280;40050;47.324;18.792;2023-05-11T03:15:00;1003.73;;;13.48;56.96
54144;BME280;40050;47.324;18.792;2023-05-11T03:17:02;1003.70;;;13.40;56.92
54144;BME280;40050;47.324;18.792;2023-05-11T03:19:04;1003.72;;;13.36;57.04
54144;BME280;40050;47.324;18.792;2023-05-11T03:21:05;1003.77;;;13.32;57.16
54144;BME280;40050;47.324;18.792;2023-05-11T03:23:06;1003.79;;;13.25;57.18
54144;BME280;40050;47.324;18.792;2023-05-11T03:25:08;1003.76;;;13.19;57.35
54144;BME280;40050;47.324;18.792;2023-05-11T03:27:09;1003.79;;;13.18;57.40
54144;BME280;40050;47.324;18.792;2023-05-11T03:29:11;1003.82;;;13.12;57.42
54144;BME280;40050;47.324;18.792;2023-05-11T03:31:13;1003.79;;;13.08;57.62
54144;BME280;40050;47.324;18.792;2023-05-11T03:33:14;1003.84;;;13.05;57.67
54144;BME280;40050;47.324;18.792;2023-05-11T03:35:15;1003.85;;;13.03;57.70
54144;BME280;40050;47.324;18.792;2023-05-11T03:37:16;1003.79;;;12.95;57.74
54144;BME280;40050;47.324;18.792;2023-05-11T03:39:17;1003.86;;;12.99;57.88
54144;BME280;40050;47.324;18.792;2023-05-11T03:41:19;1003.71;;;12.86;57.95
54144;BME280;40050;47.324;18.792;2023-05-11T03:43:20;1003.85;;;12.90;57.99
54144;BME280;40050;47.324;18.792;2023-05-11T03:45:22;1003.85;;;12.85;58.12
54144;BME280;40050;47.324;18.792;2023-05-11T03:47:23;1003.86;;;12.83;58.02
54144;BME280;40050;47.324;18.792;2023-05-11T03:49:25;1003.84;;;12.82;57.88
54144;BME280;40050;47.324;18.792;2023-05-11T03:51:26;1003.84;;;12.80;57.84
54144;BME280;40050;47.324;18.792;2023-05-11T03:53:27;1003.85;;;12.78;57.86
54144;BME280;40050;47.324;18.792;2023-05-11T03:55:30;1003.86;;;12.74;57.99
54144;BME280;40050;47.324;18.792;2023-05-11T03:57:31;1003.83;;;12.71;58.22
54144;BME280;40050;47.324;18.792;2023-05-11T03:59:32;1003.81;;;12.70;58.30
54144;BME280;40050;47.324;18.792;2023-05-11T04:01:33;1003.86;;;12.67;58.51
54144;BME280;40050;47.324;18.792;2023-05-11T04:03:35;1003.86;;;12.70;58.65
54144;BME280;40050;47.324;18.792;2023-05-11T04:05:36;1003.90;;;12.68;58.95
54144;BME280;40050;47.324;18.792;2023-05-11T04:07:37;1003.93;;;12.66;59.11
54144;BME280;40050;47.324;18.792;2023-05-11T04:09:38;1003.33;;;12.29;59.33
54144;BME280;40050;47.324;18.792;2023-05-11T04:11:39;1003.96;;;12.68;59.54
54144;BME280;40050;47.324;18.792;2023-05-11T04:13:40;1003.96;;;12.69;59.83
54144;BME280;40050;47.324;18.792;2023-05-11T04:15:41;1003.97;;;12.73;59.83
54144;BME280;40050;47.324;18.792;2023-05-11T04:17:42;1003.94;;;12.76;60.00
54144;BME280;40050;47.324;18.792;2023-05-11T04:19:42;1003.96;;;12.78;60.15
54144;BME280;40050;47.324;18.792;2023-05-11T04:21:43;1003.98;;;12.80;60.33
54144;BME280;40050;47.324;18.792;2023-05-11T04:23:44;1003.98;;;12.81;60.49
54144;BME280;40050;47.324;18.792;2023-05-11T04:25:45;1003.99;;;12.84;60.79
54144;BME280;40050;47.324;18.792;2023-05-11T04:27:46;1003.95;;;12.88;61.14
54144;BME280;40050;47.324;18.792;2023-05-11T04:29:47;1004.01;;;12.92;61.02
54144;BME280;40050;47.324;18.792;2023-05-11T04:31:48;1003.97;;;12.96;61.14
54144;BME280;40050;47.324;18.792;2023-05-11T04:33:49;1003.99;;;13.03;60.98
54144;BME280;40050;47.324;18.792;2023-05-11T04:35:50;1003.63;;;12.89;60.21
54144;BME280;40050;47.324;18.792;2023-05-11T04:37:51;1004.05;;;13.22;60.58
54144;BME280;40050;47.324;18.792;2023-05-11T04:39:52;1003.98;;;13.32;60.13
54144;BME280;40050;47.324;18.792;2023-05-11T04:41:53;1004.00;;;13.45;59.69
54144;BME280;40050;47.324;18.792;2023-05-11T04:43:54;1004.01;;;13.59;59.82
54144;BME280;40050;47.324;18.792;2023-05-11T04:45:55;1003.96;;;13.73;59.33
54144;BME280;40050;47.324;18.792;2023-05-11T04:47:56;1004.03;;;13.90;58.72
54144;BME280;40050;47.324;18.792;2023-05-11T04:49:56;1004.01;;;14.04;58.28
54144;BME280;40050;47.324;18.792;2023-05-11T04:51:57;1004.04;;;14.20;58.04
54144;BME280;40050;47.324;18.792;2023-05-11T04:53:58;1003.98;;;14.32;57.66
54144;BME280;40050;47.324;18.792;2023-05-11T04:55:59;1004.02;;;14.46;57.33
54144;BME280;40050;47.324;18.792;2023-05-11T04:58:00;1003.97;;;14.60;57.36
54144;BME280;40050;47.324;18.792;2023-05-11T05:00:01;1004.05;;;14.80;57.44
54144;BME280;40050;47.324;18.792;2023-05-11T05:02:02;1004.07;;;14.95;56.18
54144;BME280;40050;47.324;18.792;2023-05-11T05:04:03;1004.08;;;15.14;56.00
54144;BME280;40050;47.324;18.792;2023-05-11T05:06:04;1004.13;;;15.29;55.13
54144;BME280;40050;47.324;18.792;2023-05-11T05:08:05;1004.13;;;15.46;54.81
54144;BME280;40050;47.324;18.792;2023-05-11T05:10:06;1004.08;;;15.59;53.38
54144;BME280;40050;47.324;18.792;2023-05-11T05:12:07;1004.11;;;15.73;53.18
54144;BME280;40050;47.324;18.792;2023-05-11T05:14:08;1004.16;;;15.88;51.88
54144;BME280;40050;47.324;18.792;2023-05-11T05:16:09;1004.12;;;15.95;51.52
54144;BME280;40050;47.324;18.792;2023-05-11T05:18:10;1004.12;;;16.07;51.45
54144;BME280;40050;47.324;18.792;2023-05-11T05:20:11;1004.15;;;16.22;50.40
54144;BME280;40050;47.324;18.792;2023-05-11T05:22:12;1004.20;;;16.37;49.84
54144;BME280;40050;47.324;18.792;2023-05-11T05:24:12;1004.09;;;16.40;49.95
54144;BME280;40050;47.324;18.792;2023-05-11T05:26:14;1004.13;;;16.54;50.04
54144;BME280;40050;47.324;18.792;2023-05-11T05:28:15;1004.13;;;16.62;50.22
54144;BME280;40050;47.324;18.792;2023-05-11T05:30:16;1004.19;;;16.71;49.99
54144;BME280;40050;47.324;18.792;2023-05-11T05:32:17;1004.26;;;16.85;49.28
54144;BME280;40050;47.324;18.792;2023-05-11T05:34:18;1004.28;;;16.97;48.95
54144;BME280;40050;47.324;18.792;2023-05-11T05:36:19;1004.28;;;17.01;49.16
54144;BME280;40050;47.324;18.792;2023-05-11T05:38:20;1004.18;;;17.05;48.45
54144;BME280;40050;47.324;18.792;2023-05-11T05:40:21;1004.14;;;17.08;48.70
54144;BME280;40050;47.324;18.792;2023-05-11T05:42:22;1004.21;;;17.16;48.40
54144;BME280;40050;47.324;18.792;2023-05-11T05:44:22;1004.23;;;17.16;47.67
54144;BME280;40050;47.324;18.792;2023-05-11T05:46:23;1004.26;;;17.14;47.73
54144;BME280;40050;47.324;18.792;2023-05-11T05:48:24;1004.31;;;17.11;47.46
54144;BME280;40050;47.324;18.792;2023-05-11T05:50:26;1004.36;;;17.09;47.29
54144;BME280;40050;47.324;18.792;2023-05-11T05:52:27;1004.36;;;17.07;47.04
54144;BME280;40050;47.324;18.792;2023-05-11T05:54:28;1004.24;;;17.04;47.51
54144;BME280;40050;47.324;18.792;2023-05-11T05:56:29;1004.29;;;17.10;47.57
54144;BME280;40050;47.324;18.792;2023-05-11T05:58:29;1004.32;;;17.13;47.35
54144;BME280;40050;47.324;18.792;2023-05-11T06:00:30;1004.25;;;17.16;47.70
54144;BME280;40050;47.324;18.792;2023-05-11T06:02:31;1004.24;;;17.21;47.41
54144;BME280;40050;47.324;18.792;2023-05-11T06:04:32;1004.24;;;17.26;47.07
54144;BME280;40050;47.324;18.792;2023-05-11T06:06:33;1004.28;;;17.37;47.71
54144;BME280;40050;47.324;18.792;2023-05-11T06:08:34;1004.29;;;17.51;47.85
54144;BME280;40050;47.324;18.792;2023-05-11T06:10:35;1004.34;;;17.66;47.47
54144;BME280;40050;47.324;18.792;2023-05-11T06:12:36;1004.32;;;17.78;46.57
54144;BME280;40050;47.324;18.792;2023-05-11T06:14:37;1004.30;;;17.90;46.74
54144;BME280;40050;47.324;18.792;2023-05-11T06:16:38;1004.29;;;18.03;47.03
54144;BME280;40050;47.324;18.792;2023-05-11T06:18:38;1004.28;;;18.15;46.29
54144;BME280;40050;47.324;18.792;2023-05-11T06:20:39;1004.22;;;18.22;45.96
54144;BME280;40050;47.324;18.792;2023-05-11T06:22:40;1004.23;;;18.33;46.32
54144;BME280;40050;47.324;18.792;2023-05-11T06:24:41;1004.18;;;18.45;46.22
54144;BME280;40050;47.324;18.792;2023-05-11T06:26:42;1004.22;;;18.63;45.00
54144;BME280;40050;47.324;18.792;2023-05-11T06:28:43;1004.19;;;18.67;44.14
54144;BME280;40050;47.324;18.792;2023-05-11T06:30:44;1004.19;;;18.76;43.86
54144;BME280;40050;47.324;18.792;2023-05-11T06:32:45;1003.91;;;18.64;43.45
54144;BME280;40050;47.324;18.792;2023-05-11T06:34:46;1004.20;;;18.88;43.22
54144;BME280;40050;47.324;18.792;2023-05-11T06:36:47;1004.23;;;18.99;43.24
54144;BME280;40050;47.324;18.792;2023-05-11T06:38:48;1004.25;;;19.11;43.78
54144;BME280;40050;47.324;18.792;2023-05-11T06:40:52;1004.30;;;19.27;43.05
54144;BME280;40050;47.324;18.792;2023-05-11T06:42:53;1004.27;;;19.35;42.57
54144;BME280;40050;47.324;18.792;2023-05-11T06:44:54;1004.21;;;19.43;42.61
54144;BME280;40050;47.324;18.792;2023-05-11T06:46:54;1004.28;;;19.58;42.34
54144;BME280;40050;47.324;18.792;2023-05-11T06:48:55;1004.25;;;19.56;40.94
54144;BME280;40050;47.324;18.792;2023-05-11T06:50:56;1004.23;;;19.72;41.68
54144;BME280;40050;47.324;18.792;2023-05-11T06:52:57;1004.23;;;19.78;40.66
54144;BME280;40050;47.324;18.792;2023-05-11T06:54:58;1004.23;;;19.86;41.11
54144;BME280;40050;47.324;18.792;2023-05-11T06:56:59;1004.17;;;19.98;41.22
54144;BME280;40050;47.324;18.792;2023-05-11T06:59:00;1004.15;;;20.16;41.60
54144;BME280;40050;47.324;18.792;2023-05-11T07:01:01;1004.25;;;20.37;40.87
54144;BME280;40050;47.324;18.792;2023-05-11T07:03:02;1004.19;;;20.44;40.64
54144;BME280;40050;47.324;18.792;2023-05-11T07:05:03;1004.10;;;20.45;40.26
54144;BME280;40050;47.324;18.792;2023-05-11T07:07:04;1004.14;;;20.66;39.33
54144;BME280;40050;47.324;18.792;2023-05-11T07:09:05;1004.06;;;20.77;39.29
54144;BME280;40050;47.324;18.792;2023-05-11T07:11:06;1004.03;;;20.85;38.07
54144;BME280;40050;47.324;18.792;2023-05-11T07:13:07;1004.06;;;20.99;38.65
54144;BME280;40050;47.324;18.792;2023-05-11T07:15:08;1004.07;;;21.09;38.15
54144;BME280;40050;47.324;18.792;2023-05-11T07:17:09;1003.79;;;21.04;38.03
54144;BME280;40050;47.324;18.792;2023-05-11T07:19:10;1003.82;;;21.19;38.08
54144;BME280;40050;47.324;18.792;2023-05-11T07:21:11;1004.10;;;21.52;37.59
54144;BME280;40050;47.324;18.792;2023-05-11T07:23:12;1004.07;;;21.63;36.86
54144;BME280;40050;47.324;18.792;2023-05-11T07:25:13;1004.07;;;21.73;37.38
54144;BME280;40050;47.324;18.792;2023-05-11T07:27:14;1004.08;;;21.87;37.23
54144;BME280;40050;47.324;18.792;2023-05-11T07:29:14;1004.08;;;22.02;36.79
54144;BME280;40050;47.324;18.792;2023-05-11T07:31:15;1004.05;;;22.21;36.27
54144;BME280;40050;47.324;18.792;2023-05-11T07:33:16;1003.99;;;22.37;36.05
54144;BME280;40050;47.324;18.792;2023-05-11T07:35:17;1003.99;;;22.57;35.91
54144;BME280;40050;47.324;18.792;2023-05-11T07:37:18;1004.02;;;22.66;35.73
54144;BME280;40050;47.324;18.792;2023-05-11T07:39:19;1004.00;;;22.83;34.93
54144;BME280;40050;47.324;18.792;2023-05-11T07:41:20;1003.99;;;22.78;34.12
54144;BME280;40050;47.324;18.792;2023-05-11T07:43:21;1003.93;;;22.77;34.77
54144;BME280;40050;47.324;18.792;2023-05-11T07:45:22;1003.93;;;22.75;34.46
54144;BME280;40050;47.324;18.792;2023-05-11T07:47:23;1003.90;;;22.85;34.84
54144;BME280;40050;47.324;18.792;2023-05-11T07:49:24;1003.98;;;22.85;34.13
54144;BME280;40050;47.324;18.792;2023-05-11T07:51:25;1003.96;;;22.79;33.37
54144;BME280;40050;47.324;18.792;2023-05-11T07:53:26;1004.02;;;22.79;33.46
54144;BME280;40050;47.324;18.792;2023-05-11T07:55:27;1003.97;;;22.84;33.97
54144;BME280;40050;47.324;18.792;2023-05-11T07:57:28;1004.00;;;22.96;34.33
54144;BME280;40050;47.324;18.792;2023-05-11T07:59:28;1004.00;;;23.03;33.70
54144;BME280;40050;47.324;18.792;2023-05-11T08:01:29;1003.99;;;23.04;33.05
54144;BME280;40050;47.324;18.792;2023-05-11T08:03:30;1003.92;;;23.05;33.16
54144;BME280;40050;47.324;18.792;2023-05-11T08:05:31;1003.95;;;23.11;33.54
54144;BME280;40050;47.324;18.792;2023-05-11T08:07:32;1003.88;;;23.13;33.50
54144;BME280;40050;47.324;18.792;2023-05-11T08:09:33;1003.90;;;23.27;33.51
54144;BME280;40050;47.324;18.792;2023-05-11T08:11:34;1003.89;;;23.28;33.00
54144;BME280;40050;47.324;18.792;2023-05-11T08:13:35;1003.93;;;23.29;32.85
54144;BME280;40050;47.324;18.792;2023-05-11T08:15:36;1003.98;;;23.28;32.85
54144;BME280;40050;47.324;18.792;2023-05-11T08:17:37;1003.89;;;23.35;32.13
54144;BME280;40050;47.324;18.792;2023-05-11T08:19:38;1003.90;;;23.36;33.18
54144;BME280;40050;47.324;18.792;2023-05-11T08:21:39;1003.92;;;23.35;32.95
54144;BME280;40050;47.324;18.792;2023-05-11T08:23:39;1003.84;;;23.42;32.58
54144;BME280;40050;47.324;18.792;2023-05-11T08:25:41;1003.85;;;23.44;32.74
54144;BME280;40050;47.324;18.792;2023-05-11T08:27:42;1003.75;;;23.52;32.52
54144;BME280;40050;47.324;18.792;2023-05-11T08:29:43;1003.74;;;23.64;31.93
54144;BME280;40050;47.324;18.792;2023-05-11T08:31:43;1003.76;;;23.71;32.21
54144;BME280;40050;47.324;18.792;2023-05-11T08:33:44;1003.80;;;23.77;32.52
54144;BME280;40050;47.324;18.792;2023-05-11T08:35:45;1003.77;;;23.77;32.07
54144;BME280;40050;47.324;18.792;2023-05-11T08:37:46;1003.75;;;23.83;31.83
54144;BME280;40050;47.324;18.792;2023-05-11T08:39:47;1003.68;;;23.86;31.71
54144;BME280;40050;47.324;18.792;2023-05-11T08:41:48;1003.66;;;23.99;31.93
54144;BME280;40050;47.324;18.792;2023-05-11T08:43:49;1003.69;;;23.92;32.07
54144;BME280;40050;47.324;18.792;2023-05-11T08:45:51;1003.65;;;23.99;31.71
54144;BME280;40050;47.324;18.792;2023-05-11T08:47:54;1003.56;;;24.03;31.62
54144;BME280;40050;47.324;18.792;2023-05-11T08:49:55;1003.61;;;24.03;30.81
54144;BME280;40050;47.324;18.792;2023-05-11T08:51:56;1003.58;;;23.98;30.69
54144;BME280;40050;47.324;18.792;2023-05-11T08:53:57;1003.53;;;24.08;31.04
54144;BME280;40050;47.324;18.792;2023-05-11T08:55:58;1003.59;;;24.19;31.34
54144;BME280;40050;47.324;18.792;2023-05-11T08:57:59;1003.51;;;24.21;30.63
54144;BME280;40050;47.324;18.792;2023-05-11T09:00:00;1003.47;;;24.23;30.60
54144;BME280;40050;47.324;18.792;2023-05-11T09:02:01;1003.52;;;24.38;31.60
54144;BME280;40050;47.324;18.792;2023-05-11T09:04:03;1003.36;;;24.42;31.06
54144;BME280;40050;47.324;18.792;2023-05-11T09:06:06;1003.33;;;24.55;30.64
54144;BME280;40050;47.324;18.792;2023-05-11T09:08:07;1003.32;;;24.52;29.53
54144;BME280;40050;47.324;18.792;2023-05-11T09:10:08;1003.38;;;24.59;29.59
54144;BME280;40050;47.324;18.792;2023-05-11T09:12:09;1003.44;;;24.73;29.86
54144;BME280;40050;47.324;18.792;2023-05-11T09:14:11;1003.38;;;24.70;29.40
54144;BME280;40050;47.324;18.792;2023-05-11T09:16:12;1003.27;;;24.68;29.14
54144;BME280;40050;47.324;18.792;2023-05-11T09:18:13;1003.28;;;24.72;29.89
54144;BME280;40050;47.324;18.792;2023-05-11T09:20:14;1003.23;;;24.71;29.58
54144;BME280;40050;47.324;18.792;2023-05-11T09:22:15;1003.31;;;24.82;29.00
54144;BME280;40050;47.324;18.792;2023-05-11T09:24:16;1003.16;;;24.71;29.00
54144;BME280;40050;47.324;18.792;2023-05-11T09:26:20;1003.21;;;24.83;27.53
54144;BME280;40050;47.324;18.792;2023-05-11T09:28:24;1003.05;;;24.80;28.14
54144;BME280;40050;47.324;18.792;2023-05-11T09:30:25;1003.26;;;24.97;28.43
54144;BME280;40050;47.324;18.792;2023-05-11T09:32:26;1003.22;;;25.03;28.34
54144;BME280;40050;47.324;18.792;2023-05-11T09:34:27;1003.15;;;24.99;27.30
54144;BME280;40050;47.324;18.792;2023-05-11T09:36:28;1003.21;;;25.01;26.80
54144;BME280;40050;47.324;18.792;2023-05-11T09:38:29;1003.16;;;24.95;27.03
54144;BME280;40050;47.324;18.792;2023-05-11T09:40:40;1003.22;;;24.94;26.55
54144;BME280;40050;47.324;18.792;2023-05-11T09:42:41;1003.12;;;24.82;25.76
54144;BME280;40050;47.324;18.792;2023-05-11T09:44:43;1003.12;;;24.74;25.87
54144;BME280;40050;47.324;18.792;2023-05-11T09:46:44;1003.08;;;24.63;26.10
54144;BME280;40050;47.324;18.792;2023-05-11T09:48:45;1003.15;;;24.75;26.42
54144;BME280;40050;47.324;18.792;2023-05-11T09:51:01;1003.06;;;24.80;26.42
54144;BME280;40050;47.324;18.792;2023-05-11T09:53:03;1003.08;;;24.76;26.57
54144;BME280;40050;47.324;18.792;2023-05-11T09:55:08;1003.00;;;24.60;26.48
54144;BME280;40050;47.324;18.792;2023-05-11T09:57:21;1003.12;;;24.55;26.08
54144;BME280;40050;47.324;18.792;2023-05-11T09:59:35;1003.04;;;24.58;26.05
54144;BME280;40050;47.324;18.792;2023-05-11T10:01:36;1003.04;;;24.55;26.92
54144;BME280;40050;47.324;18.792;2023-05-11T10:03:46;1003.03;;;24.62;26.88
54144;BME280;40050;47.324;18.792;2023-05-11T10:05:58;1002.87;;;24.56;26.49
54144;BME280;40050;47.324;18.792;2023-05-11T10:08:02;1002.96;;;24.68;27.02
54144;BME280;40050;47.324;18.792;2023-05-11T10:10:04;1002.88;;;24.83;27.25
54144;BME280;40050;47.324;18.792;2023-05-11T10:12:06;1002.94;;;24.96;27.17
54144;BME280;40050;47.324;18.792;2023-05-11T10:14:08;1002.93;;;25.02;26.80
54144;BME280;40050;47.324;18.792;2023-05-11T10:16:11;1002.75;;;25.09;26.95
54144;BME280;40050;47.324;18.792;2023-05-11T10:18:12;1002.84;;;24.90;26.67
54144;BME280;40050;47.324;18.792;2023-05-11T10:20:13;1002.82;;;24.93;26.94
54144;BME280;40050;47.324;18.792;2023-05-11T10:22:14;1002.84;;;24.90;26.95
54144;BME280;40050;47.324;18.792;2023-05-11T10:24:15;1002.81;;;24.71;26.96
54144;BME280;40050;47.324;18.792;2023-05-11T10:26:17;1002.74;;;24.63;26.57
54144;BME280;40050;47.324;18.792;2023-05-11T10:28:18;1002.82;;;24.57;26.74
54144;BME280;40050;47.324;18.792;2023-05-11T10:30:18;1002.77;;;24.62;26.72
54144;BME280;40050;47.324;18.792;2023-05-11T10:32:20;1002.82;;;24.80;26.73
54144;BME280;40050;47.324;18.792;2023-05-11T10:34:21;1002.75;;;24.81;26.86
54144;BME280;40050;47.324;18.792;2023-05-11T10:36:23;1002.75;;;24.67;26.74
54144;BME280;40050;47.324;18.792;2023-05-11T10:38:24;1002.58;;;24.59;27.09
54144;BME280;40050;47.324;18.792;2023-05-11T10:40:25;1002.66;;;24.60;27.37
54144;BME280;40050;47.324;18.792;2023-05-11T10:44:47;1002.65;;;24.74;27.33
54144;BME280;40050;47.324;18.792;2023-05-11T10:46:57;1002.71;;;24.69;26.24
54144;BME280;40050;47.324;18.792;2023-05-11T10:53:40;1002.60;;;24.41;26.86